createdAt,value
2022-08-17T00:00:12.802Z,2.20
2022-08-17T00:01:10.696Z,2.10
2022-08-17T00:02:14.529Z,2.30
2022-08-17T00:03:10.658Z,2.00
2022-08-17T00:04:11.717Z,2.30
2022-08-17T00:05:09.619Z,2.50
2022-08-17T00:06:09.589Z,2.30
2022-08-17T00:07:09.577Z,2.00
2022-08-17T00:08:09.557Z,2.20
2022-08-17T00:09:09.609Z,2.30
2022-08-17T00:10:09.557Z,2.10
2022-08-17T00:11:09.545Z,2.50
2022-08-17T00:12:41.741Z,2.20
2022-08-17T00:13:10.510Z,2.30
2022-08-17T00:14:09.488Z,2.30
2022-08-17T00:15:10.645Z,2.10
2022-08-17T00:16:09.473Z,2.10
2022-08-17T00:17:09.459Z,2.30
2022-08-17T00:19:01.221Z,2.00
2022-08-17T00:19:10.439Z,2.00
2022-08-17T00:20:09.422Z,2.30
2022-08-17T00:21:10.471Z,2.40
2022-08-17T00:22:34.842Z,2.30
2022-08-17T00:23:10.401Z,2.40
2022-08-17T00:24:09.383Z,2.30
2022-08-17T00:25:09.373Z,2.70
2022-08-17T00:26:09.363Z,2.40
2022-08-17T00:27:09.375Z,2.10
2022-08-17T00:28:09.356Z,2.40
2022-08-17T00:29:09.335Z,2.10
2022-08-17T00:30:10.312Z,2.30
2022-08-17T00:31:09.294Z,2.30
2022-08-17T00:33:12.524Z,2.30
2022-08-17T00:33:22.971Z,2.50
2022-08-17T00:34:10.273Z,2.10
2022-08-17T00:35:09.257Z,2.40
2022-08-17T00:36:09.253Z,2.30
2022-08-17T00:37:09.234Z,2.30
2022-08-17T00:38:09.234Z,2.00
2022-08-17T00:39:09.217Z,2.40
2022-08-17T00:40:09.271Z,2.20
2022-08-17T00:41:09.175Z,2.20
2022-08-17T00:42:09.178Z,2.30
2022-08-17T00:43:09.175Z,2.60
2022-08-17T00:44:09.179Z,2.30
2022-08-17T00:45:09.139Z,2.20
2022-08-17T00:46:09.129Z,2.20
2022-08-17T00:47:09.116Z,2.10
2022-08-17T00:48:11.522Z,2.10
2022-08-17T00:49:10.128Z,2.20
2022-08-17T00:50:09.117Z,1.90
2022-08-17T00:51:09.082Z,1.90
2022-08-17T00:52:11.755Z,2.30
2022-08-17T00:53:09.056Z,2.20
2022-08-17T00:54:09.038Z,2.30
2022-08-17T00:55:09.025Z,2.30
2022-08-17T00:56:09.028Z,2.60
2022-08-17T00:57:09.010Z,2.50
2022-08-17T00:58:09.000Z,2.40
2022-08-17T00:59:08.978Z,2.00
2022-08-17T01:00:08.972Z,1.90
2022-08-17T01:01:09.042Z,2.40
2022-08-17T01:02:08.941Z,2.30
2022-08-17T01:03:08.941Z,2.40
2022-08-17T01:04:08.922Z,2.10
2022-08-17T01:05:08.909Z,2.10
2022-08-17T01:06:08.901Z,2.10
2022-08-17T01:07:08.922Z,2.10
2022-08-17T01:08:08.874Z,2.50
2022-08-17T01:09:08.884Z,1.90
2022-08-17T01:10:08.860Z,2.20
2022-08-17T01:11:09.842Z,1.90
2022-08-17T01:12:08.835Z,2.40
2022-08-17T01:13:08.883Z,2.20
2022-08-17T01:14:08.805Z,2.30
2022-08-17T01:15:08.796Z,2.10
2022-08-17T01:16:08.795Z,2.00
2022-08-17T01:17:08.774Z,2.50
2022-08-17T01:18:08.772Z,2.50
2022-08-17T01:19:08.786Z,1.90
2022-08-17T01:20:08.736Z,2.00
2022-08-17T01:21:08.735Z,2.50
2022-08-17T01:22:08.715Z,2.70
2022-08-17T01:23:08.707Z,2.20
2022-08-17T01:24:08.697Z,2.00
2022-08-17T01:25:08.706Z,2.30
2022-08-17T01:26:08.689Z,2.30
2022-08-17T01:27:10.361Z,2.40
2022-08-17T01:28:08.661Z,2.30
2022-08-17T01:29:08.669Z,2.20
2022-08-17T01:30:58.255Z,2.40
2022-08-17T01:31:09.622Z,2.50
2022-08-17T01:32:08.611Z,2.40
2022-08-17T01:33:08.602Z,2.20
2022-08-17T01:34:08.579Z,2.10
2022-08-17T01:35:08.609Z,2.40
2022-08-17T01:36:08.561Z,2.50
2022-08-17T01:37:08.557Z,2.50
2022-08-17T01:38:08.549Z,2.30
2022-08-17T01:39:08.520Z,2.30
2022-08-17T01:40:08.588Z,2.30
2022-08-17T01:41:08.519Z,2.30
2022-08-17T01:42:08.491Z,2.00
2022-08-17T01:43:08.481Z,2.10
2022-08-17T01:44:08.472Z,2.40
2022-08-17T01:45:08.450Z,2.20
2022-08-17T01:46:08.484Z,2.50
2022-08-17T01:47:08.439Z,2.30
2022-08-17T01:48:08.421Z,2.40
2022-08-17T01:49:08.414Z,2.30
2022-08-17T01:50:08.403Z,2.40
2022-08-17T01:51:08.382Z,2.20
2022-08-17T01:52:08.403Z,2.50
2022-08-17T01:53:08.411Z,2.20
2022-08-17T01:54:08.353Z,2.50
2022-08-17T01:55:08.342Z,2.10
2022-08-17T01:56:08.335Z,2.10
2022-08-17T01:57:08.392Z,2.50
2022-08-17T01:58:08.407Z,2.40
2022-08-17T01:59:08.294Z,2.60
2022-08-17T02:00:08.285Z,2.30
2022-08-17T02:01:08.335Z,2.70
2022-08-17T02:02:08.287Z,2.40
2022-08-17T02:03:08.275Z,2.30
2022-08-17T02:04:08.248Z,2.40
2022-08-17T02:05:08.237Z,2.10
2022-08-17T02:06:26.897Z,2.30
2022-08-17T02:07:09.219Z,2.50
2022-08-17T02:08:08.236Z,2.30
2022-08-17T02:09:09.203Z,2.40
2022-08-17T02:10:19.834Z,2.30
2022-08-17T02:11:11.633Z,2.50
2022-08-17T02:12:39.430Z,2.70
2022-08-17T02:13:09.177Z,2.50
2022-08-17T02:14:08.128Z,2.10
2022-08-17T02:15:08.121Z,3.00
2022-08-17T02:16:08.110Z,2.30
2022-08-17T02:17:08.097Z,2.80
2022-08-17T02:18:08.078Z,2.60
2022-08-17T02:19:08.149Z,2.40
2022-08-17T02:20:08.059Z,2.80
2022-08-17T02:21:08.055Z,2.30
2022-08-17T02:22:08.047Z,2.50
2022-08-17T02:23:08.018Z,2.30
2022-08-17T02:24:08.037Z,2.40
2022-08-17T02:25:08.060Z,2.30
2022-08-17T02:26:08.005Z,2.20
2022-08-17T02:27:07.969Z,2.50
2022-08-17T02:28:07.986Z,2.40
2022-08-17T02:29:07.952Z,2.30
2022-08-17T02:30:59.851Z,2.40
2022-08-17T02:31:09.206Z,2.60
2022-08-17T02:32:07.920Z,2.80
2022-08-17T02:33:09.210Z,2.70
2022-08-17T02:34:07.903Z,2.30
2022-08-17T02:35:07.896Z,2.30
2022-08-17T02:36:07.888Z,2.20
2022-08-17T02:37:07.881Z,2.50
2022-08-17T02:38:07.857Z,2.60
2022-08-17T02:39:07.857Z,2.50
2022-08-17T02:40:07.919Z,2.50
2022-08-17T02:41:07.825Z,2.60
2022-08-17T02:42:07.846Z,2.60
2022-08-17T02:43:07.797Z,2.70
2022-08-17T02:44:07.794Z,2.80
2022-08-17T02:45:07.773Z,2.30
2022-08-17T02:46:07.755Z,2.70
2022-08-17T02:47:07.746Z,2.80
2022-08-17T02:48:07.795Z,2.30
2022-08-17T02:49:07.728Z,2.20
2022-08-17T02:50:07.737Z,2.40
2022-08-17T02:51:07.705Z,2.60
2022-08-17T02:52:07.708Z,2.80
2022-08-17T02:53:07.877Z,2.50
2022-08-17T02:54:39.226Z,2.50
2022-08-17T02:55:08.659Z,2.10
2022-08-17T02:56:07.649Z,2.70
2022-08-17T02:57:07.637Z,2.50
2022-08-17T02:58:07.653Z,2.60
2022-08-17T02:59:07.669Z,2.50
2022-08-17T03:00:07.596Z,2.50
2022-08-17T03:01:07.598Z,2.90
2022-08-17T03:02:07.674Z,2.60
2022-08-17T03:03:07.566Z,2.70
2022-08-17T03:04:07.569Z,2.50
2022-08-17T03:05:07.568Z,2.40
2022-08-17T03:06:07.574Z,3.00
2022-08-17T03:07:07.529Z,2.50
2022-08-17T03:08:07.528Z,2.50
2022-08-17T03:09:08.515Z,2.50
2022-08-17T03:10:07.488Z,2.60
2022-08-17T03:11:07.505Z,2.40
2022-08-17T03:12:07.482Z,3.20
2022-08-17T03:13:07.451Z,2.10
2022-08-17T03:14:07.442Z,3.20
2022-08-17T03:15:07.440Z,2.80
2022-08-17T03:16:07.443Z,2.90
2022-08-17T03:17:07.411Z,3.20
2022-08-17T03:18:07.391Z,2.50
2022-08-17T03:19:07.393Z,2.60
2022-08-17T03:20:07.381Z,2.90
2022-08-17T03:21:07.392Z,3.00
2022-08-17T03:22:35.672Z,2.70
2022-08-17T03:23:08.342Z,2.80
2022-08-17T03:24:08.962Z,2.90
2022-08-17T03:25:10.586Z,2.40
2022-08-17T03:26:07.312Z,3.00
2022-08-17T03:27:08.346Z,3.10
2022-08-17T03:28:07.284Z,3.00
2022-08-17T03:29:07.275Z,3.00
2022-08-17T03:30:07.268Z,2.80
2022-08-17T03:31:07.256Z,2.50
2022-08-17T03:32:07.235Z,2.90
2022-08-17T03:33:07.306Z,2.70
2022-08-17T03:34:07.215Z,3.30
2022-08-17T03:35:07.233Z,2.60
2022-08-17T03:36:07.212Z,2.50
2022-08-17T03:37:07.186Z,2.80
2022-08-17T03:38:07.177Z,2.80
2022-08-17T03:39:07.220Z,2.90
2022-08-17T03:40:07.222Z,2.90
2022-08-17T03:41:07.149Z,2.70
2022-08-17T03:42:07.126Z,2.80
2022-08-17T03:43:07.116Z,2.80
2022-08-17T03:44:07.139Z,2.70
2022-08-17T03:45:07.088Z,2.90
2022-08-17T03:46:10.966Z,2.90
2022-08-17T03:47:08.078Z,2.70
2022-08-17T03:48:07.058Z,2.70
2022-08-17T03:49:07.768Z,2.90
2022-08-17T03:50:10.332Z,2.50
2022-08-17T03:51:09.337Z,2.80
2022-08-17T03:52:07.034Z,3.20
2022-08-17T03:53:07.000Z,2.80
2022-08-17T03:54:07.674Z,2.70
2022-08-17T03:55:06.982Z,2.50
2022-08-17T03:56:06.998Z,2.80
2022-08-17T03:57:06.954Z,3.10
2022-08-17T03:58:06.977Z,2.80
2022-08-17T03:59:06.941Z,2.70
2022-08-17T04:00:07.934Z,3.10
2022-08-17T04:01:06.977Z,3.10
2022-08-17T04:02:06.960Z,2.70
2022-08-17T04:03:06.892Z,3.00
2022-08-17T04:04:06.881Z,2.90
2022-08-17T04:05:06.873Z,2.70
2022-08-17T04:06:06.862Z,2.50
2022-08-17T04:07:06.854Z,2.70
2022-08-17T04:08:06.852Z,2.70
2022-08-17T04:09:06.830Z,2.70
2022-08-17T04:10:06.835Z,2.80
2022-08-17T04:11:06.816Z,2.50
2022-08-17T04:12:06.802Z,2.60
2022-08-17T04:13:06.836Z,2.90
2022-08-17T04:14:06.778Z,3.00
2022-08-17T04:15:06.834Z,2.70
2022-08-17T04:16:06.753Z,3.10
2022-08-17T04:17:06.734Z,2.50
2022-08-17T04:18:07.560Z,2.70
2022-08-17T04:19:06.755Z,3.00
2022-08-17T04:20:06.705Z,2.60
2022-08-17T04:21:06.726Z,2.80
2022-08-17T04:22:06.716Z,2.70
2022-08-17T04:23:07.448Z,2.90
2022-08-17T04:24:06.687Z,2.80
2022-08-17T04:25:06.768Z,3.10
2022-08-17T04:26:06.686Z,2.80
2022-08-17T04:27:06.687Z,3.00
2022-08-17T04:28:14.577Z,3.00
2022-08-17T04:29:07.604Z,3.00
2022-08-17T04:30:06.611Z,2.80
2022-08-17T04:31:06.648Z,2.60
2022-08-17T04:32:06.618Z,3.10
2022-08-17T04:33:07.346Z,3.10
2022-08-17T04:34:06.728Z,3.40
2022-08-17T04:35:06.612Z,3.00
2022-08-17T04:36:06.518Z,2.90
2022-08-17T04:37:06.539Z,3.00
2022-08-17T04:38:06.503Z,2.60
2022-08-17T04:39:06.510Z,2.80
2022-08-17T04:40:06.508Z,2.90
2022-08-17T04:41:06.493Z,3.00
2022-08-17T04:42:06.448Z,3.00
2022-08-17T04:43:06.450Z,3.20
2022-08-17T04:44:06.430Z,3.10
2022-08-17T04:45:06.421Z,2.50
2022-08-17T04:46:06.411Z,2.90
2022-08-17T04:47:06.443Z,3.00
2022-08-17T04:48:06.394Z,2.90
2022-08-17T04:49:06.371Z,2.50
2022-08-17T04:50:06.368Z,2.80
2022-08-17T04:51:06.381Z,2.80
2022-08-17T04:52:06.397Z,2.80
2022-08-17T04:53:06.322Z,3.20
2022-08-17T04:54:06.335Z,2.90
2022-08-17T04:55:06.303Z,2.60
2022-08-17T04:56:06.308Z,2.70
2022-08-17T04:57:06.279Z,2.90
2022-08-17T04:58:06.320Z,2.90
2022-08-17T04:59:06.283Z,2.70
2022-08-17T05:00:06.264Z,2.60
2022-08-17T05:01:06.253Z,3.00
2022-08-17T05:02:06.225Z,3.30
2022-08-17T05:03:06.217Z,2.90
2022-08-17T05:04:32.803Z,2.70
2022-08-17T05:05:07.195Z,3.20
2022-08-17T05:06:06.176Z,3.10
2022-08-17T05:07:06.186Z,2.80
2022-08-17T05:08:06.176Z,3.10
2022-08-17T05:09:06.146Z,3.20
2022-08-17T05:10:06.133Z,3.30
2022-08-17T05:11:06.132Z,2.90
2022-08-17T05:12:06.117Z,2.90
2022-08-17T05:13:06.121Z,3.50
2022-08-17T05:14:06.109Z,3.00
2022-08-17T05:15:06.078Z,2.80
2022-08-17T05:16:06.060Z,3.40
2022-08-17T05:17:07.177Z,2.90
2022-08-17T05:18:07.040Z,3.30
2022-08-17T05:19:06.039Z,3.10
2022-08-17T05:20:06.056Z,3.10
2022-08-17T05:21:05.999Z,3.00
2022-08-17T05:22:06.002Z,3.10
2022-08-17T05:23:05.991Z,3.30
2022-08-17T05:24:09.656Z,3.00
2022-08-17T05:25:06.995Z,3.10
2022-08-17T05:26:06.288Z,3.90
2022-08-17T05:27:06.233Z,3.40
2022-08-17T05:28:05.923Z,3.60
2022-08-17T05:29:05.921Z,3.30
2022-08-17T05:30:05.933Z,3.20
2022-08-17T05:31:05.963Z,3.50
2022-08-17T05:32:38.951Z,3.40
2022-08-17T05:33:06.890Z,3.30
2022-08-17T05:34:05.862Z,3.50
2022-08-17T05:35:05.876Z,3.10
2022-08-17T05:36:05.831Z,3.30
2022-08-17T05:37:05.881Z,3.40
2022-08-17T05:38:05.815Z,3.40
2022-08-17T05:39:05.805Z,3.70
2022-08-17T05:40:05.880Z,3.40
2022-08-17T05:41:05.782Z,3.20
2022-08-17T05:42:05.825Z,3.60
2022-08-17T05:43:05.764Z,3.30
2022-08-17T05:44:05.745Z,3.70
2022-08-17T05:45:05.756Z,3.30
2022-08-17T05:46:05.732Z,3.10
2022-08-17T05:47:05.708Z,3.20
2022-08-17T05:48:05.755Z,3.30
2022-08-17T05:49:05.693Z,3.60
2022-08-17T05:50:09.429Z,3.20
2022-08-17T05:51:05.670Z,3.50
2022-08-17T05:52:05.658Z,3.30
2022-08-17T05:53:05.644Z,3.70
2022-08-17T05:54:05.653Z,3.50
2022-08-17T05:55:05.627Z,3.50
2022-08-17T05:56:05.611Z,3.50
2022-08-17T05:57:05.609Z,3.40
2022-08-17T05:58:05.588Z,3.40
2022-08-17T05:59:05.573Z,3.30
2022-08-17T06:00:05.598Z,3.20
2022-08-17T06:01:05.596Z,3.50
2022-08-17T06:02:05.543Z,3.70
2022-08-17T06:03:05.535Z,3.00
2022-08-17T06:04:05.523Z,3.30
2022-08-17T06:05:05.510Z,3.40
2022-08-17T06:06:05.551Z,3.00
2022-08-17T06:07:05.557Z,3.70
2022-08-17T06:08:05.461Z,3.50
2022-08-17T06:09:05.461Z,3.60
2022-08-17T06:10:05.527Z,3.90
2022-08-17T06:11:05.441Z,3.20
2022-08-17T06:12:05.451Z,3.50
2022-08-17T06:13:05.422Z,3.50
2022-08-17T06:14:05.412Z,3.70
2022-08-17T06:15:05.398Z,3.40
2022-08-17T06:16:05.513Z,3.60
2022-08-17T06:17:06.373Z,3.30
2022-08-17T06:18:05.363Z,3.40
2022-08-17T06:19:05.366Z,3.50
2022-08-17T06:20:05.355Z,3.40
2022-08-17T06:21:05.333Z,3.50
2022-08-17T06:22:05.445Z,3.40
2022-08-17T06:23:05.306Z,3.10
2022-08-17T06:24:05.295Z,3.30
2022-08-17T06:25:05.304Z,3.40
2022-08-17T06:26:06.289Z,3.40
2022-08-17T06:27:05.267Z,3.40
2022-08-17T06:28:05.327Z,3.60
2022-08-17T06:29:05.242Z,3.30
2022-08-17T06:30:05.237Z,3.40
2022-08-17T06:31:05.227Z,3.40
2022-08-17T06:32:05.240Z,3.10
2022-08-17T06:33:05.229Z,3.40
2022-08-17T06:34:05.181Z,3.70
2022-08-17T06:35:05.168Z,3.60
2022-08-17T06:36:09.207Z,3.20
2022-08-17T06:37:05.149Z,3.20
2022-08-17T06:38:05.170Z,3.50
2022-08-17T06:39:05.149Z,3.10
2022-08-17T06:40:05.165Z,3.50
2022-08-17T06:41:05.101Z,3.50
2022-08-17T06:42:05.122Z,3.70
2022-08-17T06:43:07.112Z,3.30
2022-08-17T06:44:05.086Z,3.10
2022-08-17T06:45:05.070Z,3.50
2022-08-17T06:46:05.044Z,2.90
2022-08-17T06:47:05.043Z,3.10
2022-08-17T06:48:05.036Z,3.20
2022-08-17T06:49:05.041Z,3.10
2022-08-17T06:50:05.003Z,3.70
2022-08-17T06:51:04.994Z,3.20
2022-08-17T06:52:04.973Z,3.20
2022-08-17T06:53:04.964Z,3.00
2022-08-17T06:54:04.953Z,3.10
2022-08-17T06:55:04.988Z,3.70
2022-08-17T06:56:04.943Z,3.10
2022-08-17T06:57:04.917Z,3.00
2022-08-17T06:58:12.388Z,3.40
2022-08-17T06:59:05.903Z,2.90
2022-08-17T07:00:04.939Z,3.30
2022-08-17T07:01:04.928Z,3.00
2022-08-17T07:02:04.890Z,3.30
2022-08-17T07:03:05.053Z,2.80
2022-08-17T07:04:11.620Z,3.20
2022-08-17T07:05:05.856Z,3.30
2022-08-17T07:06:04.824Z,3.20
2022-08-17T07:07:04.815Z,2.90
2022-08-17T07:08:04.804Z,3.00
2022-08-17T07:09:04.799Z,3.40
2022-08-17T07:10:04.778Z,3.10
2022-08-17T07:11:04.844Z,3.10
2022-08-17T07:12:04.764Z,3.50
2022-08-17T07:13:04.742Z,2.80
2022-08-17T07:14:04.731Z,3.40
2022-08-17T07:15:04.709Z,3.10
2022-08-17T07:16:04.709Z,3.30
2022-08-17T07:17:04.723Z,3.00
2022-08-17T07:18:04.680Z,3.10
2022-08-17T07:19:04.679Z,3.20
2022-08-17T07:20:04.677Z,3.20
2022-08-17T07:21:04.671Z,3.10
2022-08-17T07:22:04.632Z,3.20
2022-08-17T07:23:04.644Z,3.00
2022-08-17T07:24:04.611Z,3.70
2022-08-17T07:25:04.591Z,3.30
2022-08-17T07:26:04.602Z,3.20
2022-08-17T07:27:04.570Z,3.00
2022-08-17T07:28:06.072Z,3.20
2022-08-17T07:29:04.572Z,3.10
2022-08-17T07:30:09.524Z,3.00
2022-08-17T07:31:05.524Z,2.80
2022-08-17T07:32:04.529Z,3.00
2022-08-17T07:33:04.504Z,3.20
2022-08-17T07:34:04.572Z,3.10
2022-08-17T07:35:04.516Z,3.50
2022-08-17T07:36:04.488Z,3.00
2022-08-17T07:37:04.466Z,3.20
2022-08-17T07:38:04.465Z,3.30
2022-08-17T07:39:05.489Z,2.80
2022-08-17T07:40:16.218Z,2.50
2022-08-17T07:41:05.469Z,3.20
2022-08-17T07:42:04.417Z,2.80
2022-08-17T07:43:04.824Z,3.10
2022-08-17T07:44:04.393Z,2.70
2022-08-17T07:45:04.413Z,2.90
2022-08-17T07:46:04.369Z,3.00
2022-08-17T07:47:04.358Z,2.90
2022-08-17T07:48:04.348Z,2.80
2022-08-17T07:49:04.338Z,3.30
2022-08-17T07:50:04.382Z,2.90
2022-08-17T07:51:04.301Z,3.20
2022-08-17T07:52:13.531Z,2.90
2022-08-17T07:53:05.305Z,2.90
2022-08-17T07:54:13.495Z,3.20
2022-08-17T07:55:05.300Z,3.40
2022-08-17T07:56:04.263Z,2.80
2022-08-17T07:57:04.240Z,3.00
2022-08-17T07:58:04.222Z,2.90
2022-08-17T07:59:04.216Z,3.60
2022-08-17T08:00:04.219Z,2.40
2022-08-17T08:01:04.219Z,2.90
2022-08-17T08:02:05.433Z,2.60
2022-08-17T08:03:04.181Z,3.00
2022-08-17T08:04:04.156Z,2.80
2022-08-17T08:05:06.729Z,2.80
2022-08-17T08:06:04.151Z,3.20
2022-08-17T08:07:04.123Z,2.70
2022-08-17T08:08:04.135Z,2.90
2022-08-17T08:09:04.106Z,2.60
2022-08-17T08:10:04.097Z,2.50
2022-08-17T08:11:04.084Z,2.70
2022-08-17T08:12:04.073Z,2.70
2022-08-17T08:13:04.073Z,2.80
2022-08-17T08:14:04.072Z,3.00
2022-08-17T08:15:04.035Z,2.50
2022-08-17T08:16:04.026Z,2.80
2022-08-17T08:17:04.018Z,2.60
2022-08-17T08:18:04.003Z,2.50
2022-08-17T08:19:03.997Z,2.90
2022-08-17T08:20:37.921Z,2.40
2022-08-17T08:21:04.975Z,2.40
2022-08-17T08:22:03.968Z,3.00
2022-08-17T08:23:03.951Z,2.80
2022-08-17T08:24:03.939Z,2.60
2022-08-17T08:25:03.989Z,2.50
2022-08-17T08:26:03.930Z,2.60
2022-08-17T08:27:03.898Z,2.60
2022-08-17T08:28:03.910Z,2.60
2022-08-17T08:29:03.925Z,2.50
2022-08-17T08:30:03.872Z,2.70
2022-08-17T08:31:03.879Z,2.60
2022-08-17T08:32:03.845Z,2.30
2022-08-17T08:33:03.842Z,2.40
2022-08-17T08:34:03.828Z,2.60
2022-08-17T08:35:04.025Z,2.50
2022-08-17T08:36:03.803Z,2.70
2022-08-17T08:37:17.113Z,2.60
2022-08-17T08:38:04.786Z,2.50
2022-08-17T08:39:03.781Z,2.40
2022-08-17T08:40:03.793Z,2.80
2022-08-17T08:41:03.755Z,2.60
2022-08-17T08:42:03.742Z,2.90
2022-08-17T08:43:03.744Z,2.50
2022-08-17T08:44:03.734Z,2.50
2022-08-17T08:45:05.118Z,2.60
2022-08-17T08:46:03.696Z,2.60
2022-08-17T08:47:03.691Z,2.70
2022-08-17T08:48:05.696Z,2.70
2022-08-17T08:49:10.158Z,2.70
2022-08-17T08:50:05.522Z,2.80
2022-08-17T08:51:03.645Z,2.70
2022-08-17T08:52:03.626Z,2.20
2022-08-17T08:53:03.607Z,2.70
2022-08-17T08:54:03.669Z,2.60
2022-08-17T08:55:03.608Z,2.40
2022-08-17T08:56:03.602Z,3.20
2022-08-17T08:57:25.132Z,2.50
2022-08-17T08:58:04.579Z,2.90
2022-08-17T08:59:03.552Z,2.80
2022-08-17T09:00:03.552Z,2.70
2022-08-17T09:01:03.567Z,3.00
2022-08-17T09:02:03.521Z,2.80
2022-08-17T09:03:03.530Z,2.70
2022-08-17T09:04:21.512Z,2.90
2022-08-17T09:05:15.721Z,2.70
2022-08-17T09:06:04.473Z,2.70
2022-08-17T09:07:03.471Z,2.50
2022-08-17T09:08:03.446Z,2.80
2022-08-17T09:09:03.438Z,2.80
2022-08-17T09:10:03.428Z,3.30
2022-08-17T09:11:03.433Z,2.90
2022-08-17T09:12:04.086Z,2.70
2022-08-17T09:13:09.528Z,2.70
2022-08-17T09:14:04.375Z,3.00
2022-08-17T09:15:03.364Z,3.10
2022-08-17T09:16:03.363Z,3.10
2022-08-17T09:17:03.372Z,2.60
2022-08-17T09:19:01.893Z,2.80
2022-08-17T09:19:05.000Z,2.70
2022-08-17T09:20:03.361Z,2.80
2022-08-17T09:21:03.295Z,2.80
2022-08-17T09:22:03.286Z,2.70
2022-08-17T09:23:03.296Z,3.10
2022-08-17T09:24:03.268Z,2.70
2022-08-17T09:25:03.258Z,2.90
2022-08-17T09:26:03.247Z,2.60
2022-08-17T09:27:03.236Z,2.90
2022-08-17T09:28:03.269Z,2.60
2022-08-17T09:29:03.230Z,3.30
2022-08-17T09:30:03.217Z,3.00
2022-08-17T09:31:03.188Z,2.60
2022-08-17T09:32:03.177Z,3.60
2022-08-17T09:33:03.175Z,3.10
2022-08-17T09:34:03.181Z,3.20
2022-08-17T09:35:03.170Z,2.90
2022-08-17T09:36:03.148Z,3.00
2022-08-17T09:37:03.121Z,3.00
2022-08-17T09:38:03.809Z,2.90
2022-08-17T09:39:03.099Z,3.00
2022-08-17T09:40:03.203Z,3.00
2022-08-17T09:41:03.070Z,3.00
2022-08-17T09:42:03.065Z,3.40
2022-08-17T09:43:03.054Z,2.90
2022-08-17T09:44:03.042Z,3.20
2022-08-17T09:45:03.024Z,3.40
2022-08-17T09:46:03.053Z,3.60
2022-08-17T09:47:03.003Z,3.30
2022-08-17T09:48:03.028Z,3.50
2022-08-17T09:49:02.986Z,3.30
2022-08-17T09:50:02.974Z,3.40
2022-08-17T09:51:05.696Z,3.70
2022-08-17T09:52:02.976Z,3.30
2022-08-17T09:53:02.937Z,3.50
2022-08-17T09:54:34.813Z,3.20
2022-08-17T09:55:03.914Z,3.70
2022-08-17T09:56:02.955Z,3.20
2022-08-17T09:57:28.016Z,3.50
2022-08-17T09:58:03.903Z,3.10
2022-08-17T09:59:02.867Z,3.40
2022-08-17T10:00:02.864Z,3.50
2022-08-17T10:01:03.027Z,3.20
2022-08-17T10:02:02.846Z,3.10
2022-08-17T10:03:02.886Z,3.30
2022-08-17T10:04:02.817Z,3.50
2022-08-17T10:05:02.867Z,3.50
2022-08-17T10:06:02.791Z,3.30
2022-08-17T10:07:02.779Z,3.20
2022-08-17T10:08:02.780Z,3.30
2022-08-17T10:09:02.786Z,3.80
2022-08-17T10:10:02.740Z,3.40
2022-08-17T10:11:02.740Z,3.30
2022-08-17T10:12:02.721Z,3.90
2022-08-17T10:13:02.720Z,3.20
2022-08-17T10:14:02.724Z,4.10
2022-08-17T10:15:08.015Z,3.70
2022-08-17T10:16:03.694Z,3.50
2022-08-17T10:17:02.692Z,3.00
2022-08-17T10:18:02.686Z,3.30
2022-08-17T10:19:02.642Z,3.60
2022-08-17T10:20:02.673Z,3.20
2022-08-17T10:21:02.669Z,3.50
2022-08-17T10:22:14.912Z,3.40
2022-08-17T10:23:03.613Z,3.50
2022-08-17T10:24:02.610Z,3.80
2022-08-17T10:25:22.480Z,4.00
2022-08-17T10:26:03.576Z,3.50
2022-08-17T10:27:02.561Z,3.60
2022-08-17T10:28:02.549Z,3.40
2022-08-17T10:29:02.560Z,3.60
2022-08-17T10:30:02.517Z,3.50
2022-08-17T10:31:33.158Z,3.30
2022-08-17T10:32:03.497Z,3.50
2022-08-17T10:33:02.541Z,3.40
2022-08-17T10:34:02.476Z,3.70
2022-08-17T10:35:02.460Z,3.50
2022-08-17T10:36:05.293Z,4.10
2022-08-17T10:37:03.477Z,3.40
2022-08-17T10:38:02.448Z,3.60
2022-08-17T10:39:02.418Z,3.50
2022-08-17T10:40:02.504Z,3.70
2022-08-17T10:41:02.391Z,3.50
2022-08-17T10:42:02.403Z,3.80
2022-08-17T10:43:02.393Z,3.60
2022-08-17T10:44:39.517Z,3.50
2022-08-17T10:45:03.350Z,3.50
2022-08-17T10:46:09.273Z,3.60
2022-08-17T10:47:03.321Z,3.30
2022-08-17T10:48:05.858Z,3.30
2022-08-17T10:49:02.338Z,3.80
2022-08-17T10:50:02.302Z,3.60
2022-08-17T10:51:02.274Z,3.00
2022-08-17T10:52:02.292Z,3.90
2022-08-17T10:53:02.264Z,3.60
2022-08-17T10:54:02.280Z,3.30
2022-08-17T10:55:02.233Z,3.40
2022-08-17T10:56:02.223Z,3.40
2022-08-17T10:57:02.215Z,3.50
2022-08-17T10:58:02.193Z,3.40
2022-08-17T10:59:02.184Z,3.60
2022-08-17T11:00:02.245Z,3.30
2022-08-17T11:01:02.285Z,3.30
2022-08-17T11:02:02.159Z,3.20
2022-08-17T11:03:02.147Z,3.00
2022-08-17T11:04:02.144Z,3.40
2022-08-17T11:05:02.130Z,3.40
2022-08-17T11:06:03.336Z,3.70
2022-08-17T11:07:02.111Z,3.00
2022-08-17T11:08:02.095Z,3.30
2022-08-17T11:09:02.093Z,3.50
2022-08-17T11:10:02.106Z,3.20
2022-08-17T11:11:02.067Z,3.30
2022-08-17T11:12:02.069Z,3.60
2022-08-17T11:13:02.049Z,3.20
2022-08-17T11:14:02.039Z,3.20
2022-08-17T11:15:02.072Z,3.20
2022-08-17T11:16:07.666Z,3.40
2022-08-17T11:17:03.031Z,3.10
2022-08-17T11:18:01.997Z,3.80
2022-08-17T11:19:01.970Z,3.50
2022-08-17T11:20:01.960Z,3.50
2022-08-17T11:21:01.953Z,3.60
2022-08-17T11:22:01.944Z,3.70
2022-08-17T11:23:01.953Z,3.50
2022-08-17T11:24:01.911Z,3.50
2022-08-17T11:25:01.909Z,3.70
2022-08-17T11:26:01.898Z,3.70
2022-08-17T11:27:01.897Z,3.20
2022-08-17T11:28:02.012Z,3.30
2022-08-17T11:29:01.883Z,3.40
2022-08-17T11:30:02.858Z,3.10
2022-08-17T11:31:01.859Z,3.40
2022-08-17T11:32:01.824Z,3.30
2022-08-17T11:33:01.814Z,3.50
2022-08-17T11:34:02.944Z,3.30
2022-08-17T11:35:01.816Z,3.20
2022-08-17T11:36:01.776Z,3.50
2022-08-17T11:37:01.777Z,3.50
2022-08-17T11:38:01.752Z,3.40
2022-08-17T11:39:01.753Z,3.20
2022-08-17T11:40:01.840Z,3.40
2022-08-17T11:41:01.745Z,3.40
2022-08-17T11:42:01.718Z,3.30
2022-08-17T11:43:01.701Z,3.40
2022-08-17T11:44:02.039Z,3.30
2022-08-17T11:45:01.684Z,3.20
2022-08-17T11:46:01.720Z,3.50
2022-08-17T11:47:01.691Z,3.50
2022-08-17T11:48:26.527Z,3.40
2022-08-17T11:49:02.680Z,3.60
2022-08-17T11:50:01.622Z,3.50
2022-08-17T11:51:01.610Z,3.40
2022-08-17T11:52:01.731Z,3.50
2022-08-17T11:53:01.590Z,3.50
2022-08-17T11:54:30.703Z,3.40
2022-08-17T11:55:24.103Z,3.20
2022-08-17T11:56:02.553Z,3.50
2022-08-17T11:57:01.567Z,3.30
2022-08-17T11:58:01.603Z,3.40
2022-08-17T11:59:01.525Z,3.40
2022-08-17T12:00:01.520Z,3.20
2022-08-17T12:01:01.522Z,3.50
2022-08-17T12:02:01.543Z,3.40
2022-08-17T12:03:01.466Z,3.60
2022-08-17T12:04:01.511Z,3.60
2022-08-17T12:05:01.444Z,3.30
2022-08-17T12:06:01.434Z,3.30
2022-08-17T12:07:01.427Z,3.30
2022-08-17T12:08:01.426Z,3.20
2022-08-17T12:09:01.411Z,3.80
2022-08-17T12:10:01.388Z,3.10
2022-08-17T12:11:01.375Z,2.90
2022-08-17T12:12:13.207Z,3.10
2022-08-17T12:13:02.391Z,3.10
2022-08-17T12:14:01.357Z,3.20
2022-08-17T12:15:11.352Z,2.90
2022-08-17T12:16:02.328Z,3.00
2022-08-17T12:17:01.315Z,3.10
2022-08-17T12:18:01.323Z,2.90
2022-08-17T12:19:01.317Z,3.10
2022-08-17T12:20:01.308Z,2.80
2022-08-17T12:21:01.284Z,2.80
2022-08-17T12:22:01.248Z,2.90
2022-08-17T12:23:01.420Z,3.00
2022-08-17T12:24:01.241Z,2.70
2022-08-17T12:25:01.232Z,3.00
2022-08-17T12:26:01.227Z,2.90
2022-08-17T12:27:01.210Z,3.10
2022-08-17T12:28:06.808Z,2.80
2022-08-17T12:29:02.191Z,2.60
2022-08-17T12:30:01.160Z,2.80
2022-08-17T12:31:01.195Z,2.90
2022-08-17T12:32:01.153Z,3.00
2022-08-17T12:33:01.141Z,3.30
2022-08-17T12:34:01.132Z,3.00
2022-08-17T12:35:01.114Z,2.80
2022-08-17T12:36:01.202Z,3.00
2022-08-17T12:37:01.083Z,2.80
2022-08-17T12:38:01.093Z,2.70
2022-08-17T12:39:14.611Z,2.50
2022-08-17T12:40:02.121Z,2.70
2022-08-17T12:41:01.044Z,2.80
2022-08-17T12:42:02.668Z,3.00
2022-08-17T12:43:01.027Z,2.80
2022-08-17T12:44:01.007Z,2.70
2022-08-17T12:45:00.997Z,2.80
2022-08-17T12:46:00.998Z,2.60
2022-08-17T12:47:02.001Z,2.60
2022-08-17T12:48:00.973Z,2.60
2022-08-17T12:49:00.958Z,2.80
2022-08-17T12:50:00.974Z,2.40
2022-08-17T12:51:00.942Z,2.80
2022-08-17T12:52:00.920Z,2.80
2022-08-17T12:53:02.467Z,2.60
2022-08-17T12:54:00.919Z,2.50
2022-08-17T12:55:00.903Z,2.60
2022-08-17T12:56:00.870Z,2.30
2022-08-17T12:57:00.870Z,2.60
2022-08-17T12:58:01.848Z,2.60
2022-08-17T12:59:00.865Z,2.40
2022-08-17T13:00:00.858Z,2.90
2022-08-17T13:01:00.812Z,2.60
2022-08-17T13:02:00.883Z,2.50
2022-08-17T13:03:00.816Z,2.10
2022-08-17T13:04:00.782Z,2.70
2022-08-17T13:05:00.777Z,2.10
2022-08-17T13:06:00.798Z,2.60
2022-08-17T13:07:00.791Z,2.20
2022-08-17T13:08:00.737Z,2.40
2022-08-17T13:09:01.822Z,2.60
2022-08-17T13:10:00.715Z,2.70
2022-08-17T13:11:00.764Z,2.50
2022-08-17T13:12:00.716Z,2.70
2022-08-17T13:13:00.696Z,2.50
2022-08-17T13:14:00.676Z,2.60
2022-08-17T13:15:00.690Z,2.60
2022-08-17T13:16:00.657Z,2.70
2022-08-17T13:17:00.684Z,2.40
2022-08-17T13:18:00.660Z,2.30